Time;durP1;ratioP1;P1;durP2;ratioP2;P2;SDS_P1;SDS_P2;PMS_P1;PMS_P2;Temp;Humidity;BMP_temperature;BMP_pressure;BME280_temperature;BME280_humidity;BME280_pressure;Samples;Min_cycle;Max_cycle;Signal;HPM_P1;HPM_P2
2023/04/27 00:01:47;;;;;;;4.37;2.60;;;10.40;54.60;;;;;;942967;148;27420;-76
2023/04/27 00:04:15;;;;;;;3.40;2.67;;;10.40;54.70;;;;;;930464;150;27357;-76
2023/04/27 00:06:40;;;;;;;3.67;2.57;;;10.30;54.80;;;;;;940458;149;27289;-76
2023/04/27 00:09:07;;;;;;;6.60;2.70;;;10.30;55.10;;;;;;942735;148;27302;-76
2023/04/27 00:11:34;;;;;;;4.20;2.90;;;10.30;55.30;;;;;;940949;149;27395;-77
2023/04/27 00:14:00;;;;;;;3.07;2.63;;;10.30;55.30;;;;;;941519;149;27468;-76
2023/04/27 00:16:27;;;;;;;3.03;2.60;;;10.30;55.30;;;;;;940882;148;27336;-76
2023/04/27 00:18:54;;;;;;;3.70;3.23;;;10.20;55.20;;;;;;940385;149;27358;-77
2023/04/27 00:21:20;;;;;;;3.23;2.73;;;10.20;55.30;;;;;;939432;149;27271;-77
2023/04/27 00:23:47;;;;;;;3.30;3.00;;;10.20;55.40;;;;;;939377;149;27382;-76
2023/04/27 00:26:13;;;;;;;3.00;2.70;;;10.20;55.60;;;;;;940491;149;27373;-75
2023/04/27 00:28:40;;;;;;;2.43;2.30;;;10.10;55.70;;;;;;943089;148;27254;-75
2023/04/27 00:31:06;;;;;;;3.67;2.80;;;10.10;55.60;;;;;;926695;149;27408;-75
2023/04/27 00:33:33;;;;;;;2.77;2.57;;;10.00;55.60;;;;;;927590;150;27355;-75
2023/04/27 00:36:00;;;;;;;5.17;3.43;;;10.00;55.60;;;;;;942611;148;27448;-78
2023/04/27 00:38:26;;;;;;;3.33;2.90;;;10.00;55.80;;;;;;939820;149;27383;-77
2023/04/27 00:40:53;;;;;;;4.93;3.30;;;9.90;55.90;;;;;;939772;149;27328;-77
2023/04/27 00:43:19;;;;;;;5.27;3.00;;;9.90;56.00;;;;;;931783;149;27375;-76
2023/04/27 00:45:46;;;;;;;3.50;2.93;;;9.80;56.00;;;;;;928187;153;27449;-75
2023/04/27 00:48:12;;;;;;;3.20;2.90;;;9.80;56.10;;;;;;930035;154;27397;-76
2023/04/27 00:50:39;;;;;;;3.20;2.70;;;9.80;56.20;;;;;;928968;153;27353;-75
2023/04/27 00:53:06;;;;;;;4.57;3.07;;;9.70;56.30;;;;;;942372;149;27397;-76
2023/04/27 00:55:32;;;;;;;2.90;2.70;;;9.70;56.40;;;;;;925187;151;27448;-75
2023/04/27 00:57:59;;;;;;;5.07;3.20;;;9.60;56.40;;;;;;928245;152;27361;-75
2023/04/27 01:00:25;;;;;;;3.07;2.37;;;9.60;56.50;;;;;;931561;153;27333;-75
2023/04/27 01:02:52;;;;;;;4.80;2.87;;;9.50;56.60;;;;;;930425;150;27294;-75
2023/04/27 01:05:19;;;;;;;3.47;2.57;;;9.40;56.80;;;;;;941226;149;27267;-75
2023/04/27 01:07:45;;;;;;;2.60;2.40;;;9.30;57.00;;;;;;941311;151;27434;-76
2023/04/27 01:10:12;;;;;;;3.43;2.57;;;9.30;57.20;;;;;;944462;149;27887;-77
2023/04/27 01:12:38;;;;;;;5.83;2.70;;;9.20;57.40;;;;;;926373;153;27341;-76
2023/04/27 01:15:05;;;;;;;6.00;2.93;;;9.10;57.60;;;;;;927202;153;27290;-76
2023/04/27 01:17:31;;;;;;;5.43;2.33;;;9.00;57.70;;;;;;927509;153;27289;-76
2023/04/27 01:19:59;;;;;;;4.93;3.13;;;9.00;57.90;;;;;;939384;152;27445;-76
2023/04/27 01:22:25;;;;;;;3.50;3.00;;;8.90;57.90;;;;;;925946;154;28237;-76
2023/04/27 01:24:52;;;;;;;3.00;2.37;;;8.90;58.00;;;;;;926757;151;27290;-76
2023/04/27 01:27:18;;;;;;;2.97;2.60;;;8.80;58.00;;;;;;922358;153;27826;-76
2023/04/27 01:29:45;;;;;;;4.17;2.93;;;8.70;58.10;;;;;;928139;152;27454;-76
2023/04/27 01:32:11;;;;;;;3.97;2.50;;;8.60;58.20;;;;;;928916;151;27453;-76
2023/04/27 01:34:38;;;;;;;3.67;3.33;;;8.60;58.20;;;;;;940823;149;27329;-75
2023/04/27 01:37:04;;;;;;;3.87;3.00;;;8.50;58.40;;;;;;924963;151;27371;-76
2023/04/27 01:39:31;;;;;;;3.77;2.40;;;8.40;58.40;;;;;;925796;154;27422;-76
2023/04/27 01:41:57;;;;;;;3.73;2.63;;;8.30;57.70;;;;;;942293;151;27445;-76
2023/04/27 01:44:24;;;;;;;3.60;2.90;;;8.20;58.30;;;;;;925082;152;27413;-75
2023/04/27 01:46:50;;;;;;;4.93;2.90;;;8.10;58.50;;;;;;924811;152;27480;-75
2023/04/27 01:49:17;;;;;;;3.77;2.87;;;8.10;58.80;;;;;;927709;153;27400;-75
2023/04/27 01:51:44;;;;;;;3.50;2.60;;;8.00;59.00;;;;;;927073;152;27376;-75
2023/04/27 01:54:10;;;;;;;3.70;2.63;;;8.00;59.20;;;;;;926466;152;27515;-75
2023/04/27 01:56:37;;;;;;;3.23;2.80;;;7.90;59.40;;;;;;926915;153;27423;-75
2023/04/27 01:59:03;;;;;;;3.43;2.70;;;7.90;59.50;;;;;;938750;150;27399;-75
2023/04/27 02:01:30;;;;;;;4.33;2.50;;;7.90;59.70;;;;;;928695;154;27337;-74
2023/04/27 02:03:57;;;;;;;3.03;2.83;;;7.90;59.80;;;;;;941625;149;27361;-75
2023/04/27 02:06:23;;;;;;;2.43;2.23;;;7.90;59.90;;;;;;941907;152;27891;-74
2023/04/27 02:08:50;;;;;;;3.10;2.80;;;7.90;59.90;;;;;;944316;151;27363;-74
2023/04/27 02:11:16;;;;;;;3.93;2.40;;;7.90;60.00;;;;;;923641;152;27276;-74
2023/04/27 02:13:43;;;;;;;5.23;3.07;;;8.00;60.00;;;;;;928359;151;27379;-74
2023/04/27 02:16:09;;;;;;;2.50;2.30;;;8.00;60.00;;;;;;928562;151;27446;-74
2023/04/27 02:18:37;;;;;;;3.23;2.30;;;8.00;60.10;;;;;;934496;151;27394;-75
2023/04/27 02:21:03;;;;;;;2.70;2.50;;;8.00;60.20;;;;;;936926;151;27411;-75
2023/04/27 02:23:30;;;;;;;5.17;2.60;;;8.00;60.30;;;;;;922746;155;27456;-76
2023/04/27 02:25:56;;;;;;;2.77;2.57;;;8.00;60.50;;;;;;941264;149;27380;-75
2023/04/27 02:28:22;;;;;;;3.00;2.80;;;8.00;60.50;;;;;;940788;149;27454;-75
2023/04/27 02:30:49;;;;;;;3.87;2.50;;;8.00;60.40;;;;;;939907;150;28938;-76
2023/04/27 02:33:16;;;;;;;3.70;2.50;;;8.10;60.50;;;;;;923238;151;27345;-76
2023/04/27 02:35:42;;;;;;;2.73;2.53;;;8.00;60.40;;;;;;924509;152;27452;-75
2023/04/27 02:38:09;;;;;;;4.37;2.77;;;8.00;60.50;;;;;;928224;152;27366;-76
2023/04/27 02:40:35;;;;;;;3.03;2.57;;;8.00;60.50;;;;;;941372;151;27278;-76
2023/04/27 02:43:02;;;;;;;3.50;2.43;;;7.90;60.60;;;;;;917092;154;27863;-77
2023/04/27 02:45:28;;;;;;;2.87;2.67;;;7.90;60.60;;;;;;944010;151;27372;-77
2023/04/27 02:47:55;;;;;;;4.93;2.83;;;7.90;60.80;;;;;;944656;151;27445;-77
2023/04/27 02:50:22;;;;;;;5.73;3.20;;;7.90;60.80;;;;;;945434;148;28234;-77
2023/04/27 02:52:48;;;;;;;3.50;3.20;;;7.80;60.80;;;;;;946971;148;27335;-78
2023/04/27 02:55:15;;;;;;;4.47;2.83;;;7.80;61.10;;;;;;948961;148;27288;-77
2023/04/27 02:57:41;;;;;;;3.33;3.00;;;7.70;61.10;;;;;;949892;148;27457;-77
2023/04/27 03:00:09;;;;;;;4.50;3.10;;;7.60;61.10;;;;;;954012;146;27355;-77
2023/04/27 03:02:35;;;;;;;3.10;2.80;;;7.60;61.30;;;;;;946569;148;27336;-77
2023/04/27 03:05:02;;;;;;;3.33;3.03;;;7.60;61.60;;;;;;947112;148;27736;-77
2023/04/27 03:07:30;;;;;;;5.00;2.70;;;7.50;61.80;;;;;;948049;146;27264;-76
2023/04/27 03:09:55;;;;;;;2.97;2.63;;;7.60;62.10;;;;;;937181;149;27460;-76
2023/04/27 03:12:21;;;;;;;4.53;3.20;;;7.60;62.20;;;;;;947179;148;27371;-77
2023/04/27 03:14:48;;;;;;;5.17;3.30;;;7.60;63.10;;;;;;946997;148;27355;-77
2023/04/27 03:17:14;;;;;;;3.13;2.83;;;7.60;62.50;;;;;;947220;148;27301;-78
2023/04/27 03:19:41;;;;;;;5.67;3.13;;;7.60;62.50;;;;;;950934;146;27475;-78
2023/04/27 03:22:08;;;;;;;3.60;2.93;;;7.60;62.50;;;;;;936947;149;27392;-77
2023/04/27 03:24:34;;;;;;;3.60;3.00;;;7.60;62.50;;;;;;947142;148;27808;-76
2023/04/27 03:27:02;;;;;;;5.90;2.80;;;7.60;62.50;;;;;;958583;146;28746;-76
2023/04/27 03:29:27;;;;;;;2.47;2.27;;;7.60;62.50;;;;;;951558;146;27323;-77
2023/04/27 03:31:54;;;;;;;2.77;2.50;;;7.60;62.20;;;;;;951970;146;28614;-77
2023/04/27 03:34:22;;;;;;;2.93;2.30;;;7.50;62.00;;;;;;951970;146;27448;-76
2023/04/27 03:36:47;;;;;;;4.63;2.80;;;7.40;62.00;;;;;;948041;148;27368;-76
2023/04/27 03:39:14;;;;;;;3.93;1.97;;;7.30;61.90;;;;;;955511;146;27422;-78
2023/04/27 03:41:40;;;;;;;3.57;2.33;;;7.20;62.00;;;;;;951724;146;27304;-79
2023/04/27 03:44:07;;;;;;;2.33;2.13;;;7.20;63.00;;;;;;946021;148;27438;-79
2023/04/27 03:46:33;;;;;;;3.27;2.53;;;7.10;62.40;;;;;;925777;154;27338;-79
2023/04/27 03:49:00;;;;;;;3.60;2.77;;;7.00;62.50;;;;;;925871;152;27322;-78
2023/04/27 03:51:27;;;;;;;3.23;2.50;;;6.90;62.80;;;;;;940297;149;27320;-78
2023/04/27 03:53:53;;;;;;;4.63;2.77;;;6.90;62.90;;;;;;930647;151;27369;-78
2023/04/27 03:56:20;;;;;;;3.43;2.77;;;6.90;63.10;;;;;;926355;151;27373;-78
2023/04/27 03:58:46;;;;;;;3.00;2.70;;;6.90;63.20;;;;;;927918;153;27460;-77
2023/04/27 04:01:13;;;;;;;3.23;2.93;;;6.90;63.00;;;;;;940022;152;27754;-77
2023/04/27 04:03:39;;;;;;;3.37;2.70;;;6.90;63.10;;;;;;927533;151;27452;-77
2023/04/27 04:06:06;;;;;;;4.53;3.00;;;6.90;63.10;;;;;;929075;152;27366;-77
2023/04/27 04:08:33;;;;;;;4.87;2.97;;;6.90;63.20;;;;;;927906;153;27322;-77
2023/04/27 04:10:59;;;;;;;4.07;3.23;;;6.90;63.20;;;;;;932853;152;27352;-77
2023/04/27 04:13:26;;;;;;;5.03;3.10;;;6.90;63.20;;;;;;922278;151;28040;-77
2023/04/27 04:16:04;;;;;;;4.43;2.83;;;6.90;63.40;;;;;;921562;154;27381;-77
2023/04/27 04:18:31;;;;;;;3.13;2.93;;;6.90;63.40;;;;;;939188;150;27302;-77
2023/04/27 04:20:57;;;;;;;3.17;2.87;;;6.90;63.50;;;;;;940802;149;27383;-76
2023/04/27 04:23:24;;;;;;;3.83;2.87;;;6.90;63.50;;;;;;941837;149;27336;-75
2023/04/27 04:25:50;;;;;;;3.97;2.60;;;6.90;63.70;;;;;;943986;149;27343;-76
2023/04/27 04:28:17;;;;;;;3.60;2.70;;;6.90;63.90;;;;;;926933;151;27355;-77
2023/04/27 04:30:44;;;;;;;2.87;2.63;;;7.00;64.10;;;;;;926802;151;27464;-76
2023/04/27 04:33:10;;;;;;;4.43;3.30;;;7.00;64.20;;;;;;937316;150;27313;-76
2023/04/27 04:35:42;;;;;;;4.67;3.17;;;7.10;64.40;;;;;;942215;151;27378;-76
2023/04/27 04:38:07;;;;;;;4.07;3.13;;;7.10;64.50;;;;;;938957;151;27357;-76
2023/04/27 04:40:33;;;;;;;3.23;2.67;;;7.20;64.50;;;;;;927428;153;28011;-78
2023/04/27 04:42:59;;;;;;;5.63;3.20;;;7.30;64.70;;;;;;925585;153;27456;-76
2023/04/27 04:45:27;;;;;;;3.90;2.70;;;7.30;64.60;;;;;;932964;149;27418;-75
2023/04/27 04:47:53;;;;;;;3.00;2.67;;;7.40;64.60;;;;;;931682;149;27372;-76
2023/04/27 04:50:19;;;;;;;3.40;3.00;;;7.50;64.60;;;;;;930680;149;27364;-77
2023/04/27 04:52:46;;;;;;;4.23;2.83;;;7.60;64.60;;;;;;924580;150;27859;-77
2023/04/27 04:55:12;;;;;;;5.07;3.50;;;7.60;64.60;;;;;;937998;149;27310;-78
2023/04/27 04:57:39;;;;;;;3.60;3.27;;;7.70;64.40;;;;;;938080;152;27316;-78
2023/04/27 05:00:10;;;;;;;3.53;3.00;;;7.80;64.40;;;;;;925338;152;27379;-79
2023/04/27 05:02:32;;;;;;;4.27;3.50;;;7.80;64.20;;;;;;937341;149;27313;-79
2023/04/27 05:04:59;;;;;;;5.20;4.23;;;7.90;64.20;;;;;;923533;154;27392;-80
2023/04/27 05:07:25;;;;;;;5.27;3.37;;;7.90;64.20;;;;;;921956;151;27424;-80
2023/04/27 05:09:52;;;;;;;5.73;4.13;;;8.00;64.30;;;;;;942681;148;27388;-79
2023/04/27 05:12:19;;;;;;;4.23;3.40;;;8.10;64.40;;;;;;942770;148;27297;-78
2023/04/27 05:14:46;;;;;;;4.03;3.37;;;8.10;64.50;;;;;;943585;148;27273;-76
2023/04/27 05:17:12;;;;;;;4.17;3.30;;;8.30;65.30;;;;;;938228;149;27855;-77
2023/04/27 05:19:38;;;;;;;4.37;3.50;;;8.60;66.40;;;;;;935467;150;27442;-76
2023/04/27 05:22:05;;;;;;;4.33;3.00;;;9.00;67.40;;;;;;937529;150;27479;-77
2023/04/27 05:24:32;;;;;;;3.50;3.20;;;9.60;68.80;;;;;;935186;150;27330;-75
2023/04/27 05:26:58;;;;;;;5.13;3.30;;;10.20;68.20;;;;;;936928;150;27749;-75
2023/04/27 05:29:26;;;;;;;4.50;3.30;;;10.90;68.00;;;;;;937005;150;27363;-75
2023/04/27 05:31:52;;;;;;;3.75;2.60;;;11.70;67.50;;;;;;937466;150;27506;-76
2023/04/27 05:34:18;;;;;;;3.93;3.50;;;12.50;66.80;;;;;;937136;150;27376;-76
2023/04/27 05:36:46;;;;;;;3.52;3.00;;;13.40;65.90;;;;;;937120;150;27317;-76
2023/04/27 05:39:11;;;;;;;3.12;2.90;;;14.20;64.90;;;;;;949307;148;27423;-75
2023/04/27 05:41:38;;;;;;;4.75;2.40;;;15.10;63.70;;;;;;952105;148;27440;-76
2023/04/27 05:44:04;;;;;;;4.17;3.27;;;15.90;62.30;;;;;;941038;150;27448;-77
2023/04/27 05:46:31;;;;;;;3.62;2.50;;;16.70;61.50;;;;;;937659;151;27401;-77
2023/04/27 05:48:57;;;;;;;3.17;2.60;;;17.40;59.20;;;;;;937955;151;27385;-77
2023/04/27 05:51:24;;;;;;;4.53;2.72;;;18.10;57.90;;;;;;937481;151;27278;-77
2023/04/27 05:53:54;;;;;;;5.00;3.08;;;18.70;56.80;;;;;;937472;151;27332;-78
2023/04/27 05:56:17;;;;;;;2.83;2.40;;;19.30;56.00;;;;;;938203;149;27425;-77
2023/04/27 05:58:44;;;;;;;4.78;3.95;;;19.90;54.90;;;;;;938641;150;27282;-78
2023/04/27 06:01:11;;;;;;;5.35;4.22;;;20.40;53.90;;;;;;938790;149;27347;-77
2023/04/27 06:03:37;;;;;;;3.83;3.47;;;20.80;52.90;;;;;;938537;149;27426;-79
2023/04/27 06:06:04;;;;;;;4.08;3.52;;;21.20;52.10;;;;;;939062;151;27352;-78
2023/04/27 06:08:30;;;;;;;5.37;4.35;;;21.50;51.50;;;;;;939282;151;27250;-77
2023/04/27 06:10:57;;;;;;;4.67;3.35;;;21.90;51.10;;;;;;920355;154;27434;-77
2023/04/27 06:13:23;;;;;;;4.20;3.05;;;22.20;50.50;;;;;;911653;156;27426;-77
2023/04/27 06:15:50;;;;;;;6.03;3.50;;;22.60;50.10;;;;;;909296;156;27452;-78
2023/04/27 06:18:16;;;;;;;3.45;3.15;;;23.00;49.80;;;;;;906778;157;27388;-76
2023/04/27 06:20:43;;;;;;;6.20;3.00;;;23.50;49.30;;;;;;912686;156;27461;-76
2023/04/27 06:23:10;;;;;;;7.28;4.60;;;24.00;48.60;;;;;;919799;155;27476;-77
2023/04/27 06:25:38;;;;;;;5.15;3.47;;;24.50;48.10;;;;;;912435;153;27501;-77
2023/04/27 06:28:03;;;;;;;4.12;2.85;;;24.90;47.80;;;;;;916752;155;27462;-79
2023/04/27 06:30:29;;;;;;;3.65;2.80;;;25.40;47.30;;;;;;908987;154;27341;-76
2023/04/27 06:32:56;;;;;;;3.00;2.70;;;25.90;46.70;;;;;;944710;149;27309;-76
2023/04/27 06:35:23;;;;;;;4.40;2.50;;;26.50;46.70;;;;;;944568;151;27362;-76
2023/04/27 06:37:50;;;;;;;2.95;2.22;;;27.00;45.40;;;;;;943367;151;27341;-76
2023/04/27 06:40:16;;;;;;;3.70;2.27;;;27.50;44.80;;;;;;938447;151;27304;-76
2023/04/27 06:42:42;;;;;;;3.37;2.27;;;27.90;44.20;;;;;;920949;155;27334;-76
2023/04/27 06:45:09;;;;;;;2.20;2.00;;;28.40;43.70;;;;;;913799;156;27391;-76
2023/04/27 06:47:36;;;;;;;2.58;2.37;;;28.90;43.10;;;;;;944101;148;27472;-76
2023/04/27 06:50:03;;;;;;;2.98;2.20;;;29.30;42.40;;;;;;944913;147;27920;-76
2023/04/27 06:52:29;;;;;;;2.72;1.85;;;29.70;41.60;;;;;;939345;150;27401;-76
2023/04/27 06:54:56;;;;;;;2.92;1.72;;;30.00;40.80;;;;;;944574;149;26285;-76
2023/04/27 06:57:22;;;;;;;3.40;2.05;;;30.30;40.00;;;;;;944846;149;28694;-76
2023/04/27 06:59:48;;;;;;;4.75;1.80;;;30.50;39.60;;;;;;943049;148;27346;-76
2023/04/27 07:02:15;;;;;;;2.15;1.95;;;30.70;39.30;;;;;;927519;150;27393;-75
2023/04/27 07:04:42;;;;;;;4.08;1.55;;;31.00;39.30;;;;;;946823;147;27303;-76
2023/04/27 07:07:08;;;;;;;2.33;1.90;;;31.30;38.90;;;;;;920742;150;27405;-76
2023/04/27 07:09:35;;;;;;;2.95;1.98;;;31.60;38.20;;;;;;943979;148;27378;-76
2023/04/27 07:12:04;;;;;;;2.90;1.92;;;31.90;37.80;;;;;;941235;149;27358;-77
2023/04/27 07:14:28;;;;;;;2.70;2.12;;;32.20;37.50;;;;;;942449;148;27372;-78
2023/04/27 07:16:55;;;;;;;6.35;2.30;;;32.40;37.20;;;;;;944037;148;27303;-79
2023/04/27 07:19:21;;;;;;;3.20;2.50;;;32.70;36.80;;;;;;921301;151;27432;-78
2023/04/27 07:21:48;;;;;;;2.92;2.15;;;33.00;36.50;;;;;;927346;150;26289;-78
2023/04/27 07:24:14;;;;;;;3.40;2.02;;;33.30;36.30;;;;;;942233;148;27351;-78
2023/04/27 07:26:41;;;;;;;5.00;2.02;;;33.60;36.00;;;;;;947414;147;27307;-78
2023/04/27 07:29:12;;;;;;;2.80;1.90;;;33.80;35.60;;;;;;948383;147;26293;-78
2023/04/27 07:31:34;;;;;;;3.42;1.87;;;34.20;35.50;;;;;;943131;149;26696;-78
2023/04/27 07:34:01;;;;;;;2.50;1.62;;;34.50;35.10;;;;;;944583;149;26292;-78
2023/04/27 07:36:27;;;;;;;2.80;1.50;;;34.90;34.50;;;;;;944859;149;27432;-78
2023/04/27 07:38:54;;;;;;;2.22;1.77;;;35.10;33.40;;;;;;944168;149;26407;-78
2023/04/27 07:41:22;;;;;;;3.00;1.20;;;35.30;32.90;;;;;;942390;148;26332;-78
2023/04/27 07:43:48;;;;;;;5.05;1.75;;;35.50;32.30;;;;;;943075;148;26252;-78
2023/04/27 07:46:14;;;;;;;1.17;1.07;;;35.50;31.70;;;;;;941796;148;26215;-78
2023/04/27 07:48:41;;;;;;;2.12;1.60;;;35.60;31.60;;;;;;943509;148;26255;-78
2023/04/27 07:51:07;;;;;;;2.75;1.60;;;35.70;31.30;;;;;;941326;149;26230;-78
2023/04/27 07:53:33;;;;;;;1.90;1.55;;;35.70;30.80;;;;;;944597;148;26265;-78
2023/04/27 07:56:00;;;;;;;1.82;1.40;;;35.70;30.40;;;;;;939095;150;26394;-78
2023/04/27 07:58:27;;;;;;;4.45;1.70;;;35.60;30.30;;;;;;938342;150;26307;-78
2023/04/27 08:00:53;;;;;;;2.20;1.47;;;35.60;30.20;;;;;;944511;148;27799;-78
2023/04/27 08:03:21;;;;;;;1.57;1.47;;;35.60;30.50;;;;;;945021;147;26284;-79
2023/04/27 08:05:46;;;;;;;2.52;1.37;;;35.70;30.30;;;;;;944636;149;26275;-79
2023/04/27 08:08:13;;;;;;;2.60;1.50;;;35.80;30.00;;;;;;944588;149;26302;-79
2023/04/27 08:10:41;;;;;;;2.72;1.70;;;35.90;29.90;;;;;;943918;148;26350;-79
2023/04/27 08:13:08;;;;;;;3.75;1.57;;;36.00;29.80;;;;;;943962;148;26299;-79
2023/04/27 08:15:33;;;;;;;3.25;1.77;;;36.10;29.60;;;;;;943188;148;27421;-79
2023/04/27 08:17:59;;;;;;;6.87;1.70;;;36.20;29.50;;;;;;942419;148;26417;-79
2023/04/27 08:20:26;;;;;;;2.10;1.47;;;36.20;29.60;;;;;;941606;149;26244;-79
2023/04/27 08:22:53;;;;;;;2.08;1.42;;;36.30;29.00;;;;;;941517;149;26261;-79
2023/04/27 08:25:19;;;;;;;2.33;1.42;;;36.40;28.80;;;;;;940612;149;26256;-79
2023/04/27 08:27:46;;;;;;;3.27;1.55;;;36.50;28.60;;;;;;941639;149;26292;-79
2023/04/27 08:30:12;;;;;;;1.80;1.25;;;36.50;28.50;;;;;;943796;148;26308;-79
2023/04/27 08:32:39;;;;;;;2.42;1.65;;;36.60;28.30;;;;;;944071;148;26307;-79
2023/04/27 08:35:06;;;;;;;1.40;1.25;;;36.60;28.10;;;;;;943913;148;26296;-79
2023/04/27 08:37:32;;;;;;;5.17;2.25;;;36.70;28.50;;;;;;943122;148;26347;-79
2023/04/27 08:39:59;;;;;;;3.08;1.62;;;36.70;27.80;;;;;;926641;150;26291;-79
2023/04/27 08:42:25;;;;;;;2.80;1.72;;;36.70;27.90;;;;;;942940;148;26299;-77
2023/04/27 08:44:52;;;;;;;2.37;1.45;;;36.90;27.90;;;;;;945774;148;26282;-78
2023/04/27 08:47:18;;;;;;;2.00;1.60;;;36.90;27.60;;;;;;939823;150;26275;-78
2023/04/27 08:49:45;;;;;;;1.40;1.30;;;37.00;27.50;;;;;;920791;155;26698;-78
2023/04/27 08:52:15;;;;;;;2.25;1.40;;;37.10;27.10;;;;;;925129;152;26376;-78
2023/04/27 08:54:41;;;;;;;2.65;1.75;;;37.00;27.10;;;;;;928123;153;26269;-78
2023/04/27 08:57:10;;;;;;;2.08;1.57;;;37.00;27.00;;;;;;926649;153;26374;-78
2023/04/27 08:59:37;;;;;;;2.65;1.85;;;37.00;26.70;;;;;;926658;153;26276;-78
2023/04/27 09:02:04;;;;;;;1.70;1.60;;;37.00;26.50;;;;;;926731;151;26328;-78
2023/04/27 09:04:36;;;;;;;2.80;1.70;;;36.90;26.50;;;;;;937861;152;26226;-78
2023/04/27 09:07:15;;;;;;;2.08;1.60;;;36.90;26.40;;;;;;938288;150;26354;-78
2023/04/27 09:09:41;;;;;;;2.92;1.67;;;36.80;26.20;;;;;;938233;152;26315;-78
2023/04/27 09:12:16;;;;;;;1.62;1.45;;;36.60;25.90;;;;;;937726;152;26330;-78
2023/04/27 09:14:43;;;;;;;3.22;1.85;;;36.40;25.90;;;;;;937603;149;26226;-78
2023/04/27 09:17:10;;;;;;;3.02;1.70;;;36.30;26.30;;;;;;937845;149;26341;-79
2023/04/27 09:19:36;;;;;;;2.30;1.92;;;36.30;26.00;;;;;;924579;154;26367;-78
2023/04/27 09:22:06;;;;;;;2.05;1.45;;;36.20;26.00;;;;;;924260;154;26207;-78
2023/04/27 09:24:32;;;;;;;2.02;1.70;;;36.20;26.20;;;;;;938579;149;26207;-78
2023/04/27 09:26:59;;;;;;;3.80;1.85;;;36.10;26.10;;;;;;939118;149;26255;-78
2023/04/27 09:29:32;;;;;;;2.83;1.85;;;36.10;25.90;;;;;;938735;149;26351;-78
2023/04/27 09:31:58;;;;;;;2.80;1.90;;;36.20;25.80;;;;;;938676;150;26259;-78
2023/04/27 09:34:25;;;;;;;2.83;1.90;;;36.20;25.80;;;;;;939040;152;26305;-78
2023/04/27 09:36:52;;;;;;;2.98;1.77;;;36.10;25.60;;;;;;938680;152;26235;-78
2023/04/27 09:39:19;;;;;;;2.83;1.70;;;36.10;25.40;;;;;;938721;152;26368;-79
2023/04/27 09:41:45;;;;;;;2.72;1.85;;;35.90;25.20;;;;;;927600;153;26471;-78
2023/04/27 09:44:11;;;;;;;3.65;1.60;;;35.70;25.10;;;;;;924507;154;26311;-78
2023/04/27 09:46:38;;;;;;;2.25;1.70;;;35.50;25.20;;;;;;938861;152;26642;-78
2023/04/27 09:49:04;;;;;;;1.52;1.40;;;35.30;25.40;;;;;;932660;149;26274;-79
2023/04/27 09:51:31;;;;;;;2.40;1.60;;;35.10;25.50;;;;;;944766;149;26346;-78
2023/04/27 09:53:57;;;;;;;4.37;1.57;;;34.90;25.50;;;;;;941337;149;26255;-79
2023/04/27 09:56:25;;;;;;;3.47;1.90;;;34.70;25.30;;;;;;941585;149;26239;-78
2023/04/27 09:58:57;;;;;;;1.85;1.57;;;34.50;25.30;;;;;;940879;149;26314;-79
2023/04/27 10:01:26;;;;;;;2.25;1.60;;;34.20;25.40;;;;;;942030;149;27386;-78
2023/04/27 10:04:04;;;;;;;3.87;2.02;;;33.90;25.20;;;;;;943345;148;27424;-78
2023/04/27 10:06:43;;;;;;;2.77;1.87;;;33.60;25.10;;;;;;943232;148;27329;-78
2023/04/27 10:09:10;;;;;;;3.12;1.80;;;33.20;25.00;;;;;;943114;148;27442;-79
2023/04/27 10:11:39;;;;;;;3.17;1.80;;;32.80;25.00;;;;;;940805;149;27463;-78
2023/04/27 10:14:06;;;;;;;3.67;2.40;;;32.30;24.90;;;;;;940616;149;27303;-78
2023/04/27 10:16:32;;;;;;;2.35;1.75;;;31.90;25.00;;;;;;940946;149;27291;-78
2023/04/27 10:18:59;;;;;;;3.30;1.98;;;31.40;25.20;;;;;;934572;149;27326;-78
2023/04/27 10:21:26;;;;;;;2.83;1.87;;;31.00;25.30;;;;;;942187;149;27443;-78
2023/04/27 10:23:53;;;;;;;1.90;1.80;;;30.60;25.60;;;;;;941819;149;27463;-78
2023/04/27 10:26:25;;;;;;;2.08;1.80;;;30.20;25.30;;;;;;941253;149;27326;-78
2023/04/27 10:29:07;;;;;;;3.33;2.17;;;29.80;25.30;;;;;;941973;149;27323;-78
2023/04/27 10:31:33;;;;;;;2.62;1.72;;;29.30;25.40;;;;;;939494;149;27405;-78
2023/04/27 10:34:08;;;;;;;2.42;1.80;;;28.90;25.50;;;;;;942198;149;27442;-78
2023/04/27 10:36:35;;;;;;;2.55;1.57;;;28.40;25.80;;;;;;940154;149;27395;-78
2023/04/27 10:39:01;;;;;;;2.17;1.65;;;28.00;26.10;;;;;;940452;149;27350;-78
2023/04/27 10:41:28;;;;;;;1.72;1.62;;;27.70;26.30;;;;;;942162;149;27412;-78
2023/04/27 10:43:54;;;;;;;2.70;2.10;;;27.40;26.40;;;;;;940634;149;27438;-78
2023/04/27 10:46:21;;;;;;;2.37;1.92;;;27.10;26.70;;;;;;940776;149;27271;-78
2023/04/27 10:48:48;;;;;;;4.10;2.10;;;26.90;26.80;;;;;;943897;148;27369;-78
2023/04/27 10:51:17;;;;;;;2.58;1.90;;;26.60;26.80;;;;;;940295;149;27319;-78
2023/04/27 10:53:44;;;;;;;2.40;2.20;;;26.40;27.00;;;;;;921518;152;27824;-78
2023/04/27 10:56:10;;;;;;;3.83;1.85;;;26.30;27.00;;;;;;939858;152;27322;-78
2023/04/27 10:58:37;;;;;;;2.10;1.87;;;26.10;27.10;;;;;;939191;152;27294;-78
2023/04/27 11:01:03;;;;;;;2.30;2.08;;;25.90;27.30;;;;;;930324;154;27265;-78
2023/04/27 11:03:30;;;;;;;2.00;1.70;;;25.70;27.50;;;;;;944040;149;27346;-78
2023/04/27 11:06:00;;;;;;;2.12;1.80;;;25.60;27.60;;;;;;926650;154;27376;-78
2023/04/27 11:08:26;;;;;;;3.60;2.10;;;25.50;27.70;;;;;;927158;152;27439;-78
2023/04/27 11:10:53;;;;;;;2.50;2.30;;;25.40;27.70;;;;;;941343;150;27308;-78
2023/04/27 11:13:20;;;;;;;2.55;1.72;;;25.30;27.80;;;;;;929394;153;27301;-78
2023/04/27 11:15:49;;;;;;;3.37;1.90;;;25.20;28.10;;;;;;926825;154;27391;-78
2023/04/27 11:18:16;;;;;;;3.37;2.15;;;25.10;28.00;;;;;;940612;152;27318;-78
2023/04/27 11:20:44;;;;;;;3.65;2.20;;;25.10;28.00;;;;;;941407;149;27323;-77
2023/04/27 11:23:11;;;;;;;2.08;1.95;;;25.00;28.50;;;;;;940300;150;27350;-77
2023/04/27 11:25:38;;;;;;;2.55;2.22;;;25.00;28.20;;;;;;923749;152;27324;-77
2023/04/27 11:28:05;;;;;;;2.45;2.05;;;24.90;28.30;;;;;;939783;149;27298;-77
2023/04/27 11:30:31;;;;;;;3.30;2.10;;;24.90;28.40;;;;;;943600;151;27294;-77
2023/04/27 11:32:57;;;;;;;2.20;2.00;;;24.90;28.50;;;;;;938399;152;27414;-77
2023/04/27 11:35:33;;;;;;;1.70;1.55;;;24.90;28.60;;;;;;938795;152;27326;-77
2023/04/27 11:37:59;;;;;;;2.17;1.95;;;24.90;28.50;;;;;;933304;153;27337;-77
2023/04/27 11:40:27;;;;;;;3.40;2.02;;;24.90;28.50;;;;;;934402;151;27299;-77
2023/04/27 11:42:59;;;;;;;2.55;1.60;;;24.90;28.50;;;;;;930875;153;27482;-77
2023/04/27 11:45:26;;;;;;;2.65;1.85;;;25.00;28.50;;;;;;928699;153;27754;-77
2023/04/27 11:47:52;;;;;;;2.50;1.77;;;25.00;28.50;;;;;;929370;153;27311;-77
2023/04/27 11:50:18;;;;;;;1.62;1.47;;;25.00;28.60;;;;;;927760;150;27370;-77
2023/04/27 11:52:45;;;;;;;2.02;1.87;;;25.00;28.70;;;;;;937754;148;27296;-77
2023/04/27 11:55:14;;;;;;;2.83;1.80;;;25.10;28.70;;;;;;936411;148;27406;-77
2023/04/27 11:57:38;;;;;;;3.12;1.67;;;25.20;28.70;;;;;;936641;150;27264;-77
2023/04/27 12:00:13;;;;;;;2.70;1.80;;;25.20;28.90;;;;;;934518;149;27311;-77
2023/04/27 12:02:37;;;;;;;1.70;1.60;;;25.30;28.90;;;;;;941314;148;27343;-77
2023/04/27 12:05:04;;;;;;;2.37;1.77;;;25.40;28.80;;;;;;925965;150;27425;-77
2023/04/27 12:07:31;;;;;;;3.27;1.67;;;25.30;28.50;;;;;;937180;149;27428;-77
2023/04/27 12:09:57;;;;;;;2.85;1.90;;;25.40;28.40;;;;;;936337;149;27495;-77
2023/04/27 12:12:24;;;;;;;2.75;1.92;;;25.30;28.40;;;;;;943807;148;27334;-77
2023/04/27 12:14:50;;;;;;;3.90;2.05;;;25.30;28.40;;;;;;925611;150;27296;-77
2023/04/27 12:17:17;;;;;;;3.35;1.87;;;25.20;28.40;;;;;;938896;150;27389;-77
2023/04/27 12:19:44;;;;;;;1.50;1.40;;;25.10;28.40;;;;;;940033;148;27299;-77
2023/04/27 12:22:10;;;;;;;1.98;1.70;;;24.90;28.30;;;;;;911273;153;27372;-77
2023/04/27 12:24:37;;;;;;;2.62;1.40;;;24.90;28.40;;;;;;934042;149;27276;-77
2023/04/27 12:27:03;;;;;;;1.42;1.32;;;24.70;28.50;;;;;;937402;148;27343;-77
2023/04/27 12:29:33;;;;;;;2.72;1.60;;;24.60;28.70;;;;;;921102;150;27785;-77
2023/04/27 12:31:57;;;;;;;1.77;1.65;;;24.60;28.90;;;;;;936514;149;27420;-77
2023/04/27 12:34:23;;;;;;;2.95;1.60;;;24.50;29.00;;;;;;936026;149;27376;-77
2023/04/27 12:36:50;;;;;;;6.15;2.17;;;24.50;29.10;;;;;;932904;149;27331;-77
2023/04/27 12:39:16;;;;;;;1.55;1.42;;;24.50;29.10;;;;;;938372;150;27370;-77
2023/04/27 12:41:43;;;;;;;2.20;1.57;;;24.50;29.10;;;;;;940177;150;27412;-77
2023/04/27 12:44:11;;;;;;;2.45;1.80;;;24.50;29.20;;;;;;930817;149;27400;-77
2023/04/27 12:46:36;;;;;;;4.08;1.70;;;24.50;29.30;;;;;;938048;150;27268;-77
2023/04/27 12:49:03;;;;;;;2.75;1.87;;;24.60;29.30;;;;;;931332;149;27403;-77